createdAt,value
2022-11-03T00:00:12.325Z,15.68
2022-11-03T00:02:44.460Z,19.25
2022-11-03T00:05:35.120Z,21.40
2022-11-03T00:08:06.939Z,23.63
2022-11-03T00:10:38.615Z,19.27
2022-11-03T00:13:10.192Z,24.02
2022-11-03T00:15:49.019Z,22.05
2022-11-03T00:18:20.574Z,22.35
2022-11-03T00:20:58.776Z,21.38
2022-11-03T00:23:32.863Z,22.25
2022-11-03T00:26:17.151Z,20.65
2022-11-03T00:29:03.187Z,24.38
2022-11-03T00:31:36.898Z,23.23
2022-11-03T00:34:09.194Z,20.23
2022-11-03T00:36:43.524Z,19.65
2022-11-03T00:39:15.091Z,21.17
2022-11-03T00:41:46.667Z,20.40
2022-11-03T00:44:18.256Z,21.92
2022-11-03T00:46:52.731Z,19.63
2022-11-03T00:49:24.298Z,17.42
2022-11-03T00:51:56.187Z,24.17
2022-11-03T00:54:27.699Z,18.40
2022-11-03T00:56:59.334Z,19.58
2022-11-03T00:59:30.926Z,20.30
2022-11-03T01:02:02.737Z,20.38
2022-11-03T01:04:53.043Z,20.83
2022-11-03T01:07:24.622Z,20.70
2022-11-03T01:09:56.238Z,21.83
2022-11-03T01:12:27.880Z,22.48
2022-11-03T01:14:59.443Z,17.15
2022-11-03T01:17:31.038Z,17.83
2022-11-03T01:20:02.615Z,25.33
2022-11-03T01:22:34.240Z,21.48
2022-11-03T01:25:06.180Z,18.73
2022-11-03T01:27:37.782Z,24.10
2022-11-03T01:30:09.829Z,22.83
2022-11-03T01:32:41.375Z,18.08
2022-11-03T01:35:13.342Z,23.45
2022-11-03T01:37:47.777Z,22.73
2022-11-03T01:40:19.875Z,18.73
2022-11-03T01:42:51.411Z,22.92
2022-11-03T01:45:22.923Z,21.50
2022-11-03T01:47:54.535Z,19.80
2022-11-03T01:50:26.119Z,22.02
2022-11-03T01:52:58.715Z,22.10
2022-11-03T01:55:36.261Z,17.42
2022-11-03T01:58:19.614Z,14.95
2022-11-03T02:00:53.922Z,18.90
2022-11-03T02:03:27.004Z,19.40
2022-11-03T02:05:58.811Z,21.83
2022-11-03T02:08:39.767Z,21.77
2022-11-03T02:11:31.809Z,19.48
2022-11-03T02:14:04.815Z,19.30
2022-11-03T02:16:36.404Z,19.10
2022-11-03T02:19:24.281Z,18.60
2022-11-03T02:22:03.056Z,25.48
2022-11-03T02:24:54.288Z,21.55
2022-11-03T02:27:26.222Z,23.23
2022-11-03T02:29:58.961Z,19.10
2022-11-03T02:32:55.279Z,21.70
2022-11-03T02:35:34.195Z,19.50
2022-11-03T02:38:12.097Z,22.50
2022-11-03T02:40:48.837Z,18.35
2022-11-03T02:43:23.891Z,21.27
2022-11-03T02:45:55.991Z,21.33
2022-11-03T02:48:27.981Z,24.85
2022-11-03T02:50:59.607Z,22.88
2022-11-03T02:53:34.620Z,21.85
2022-11-03T02:56:16.818Z,20.20
2022-11-03T02:58:48.243Z,24.25
2022-11-03T03:01:32.724Z,19.73
2022-11-03T03:04:09.552Z,22.45
2022-11-03T03:06:51.061Z,20.67
2022-11-03T03:09:29.258Z,22.45
2022-11-03T03:12:03.482Z,18.52
2022-11-03T03:14:38.779Z,20.67
2022-11-03T03:17:30.912Z,19.75
2022-11-03T03:20:13.512Z,21.85
2022-11-03T03:22:51.957Z,18.63
2022-11-03T03:25:43.685Z,19.75
2022-11-03T03:28:30.011Z,21.73
2022-11-03T03:31:06.061Z,18.70
2022-11-03T03:33:40.726Z,23.25
2022-11-03T03:36:18.850Z,20.10
2022-11-03T03:38:58.951Z,19.88
2022-11-03T03:41:32.813Z,24.85
2022-11-03T03:44:07.571Z,20.77
2022-11-03T03:49:14.552Z,20.33
2022-11-03T03:51:47.143Z,23.85
2022-11-03T03:54:18.745Z,19.67
2022-11-03T03:56:57.579Z,22.27
2022-11-03T03:59:29.161Z,20.35
2022-11-03T04:02:00.837Z,21.45
2022-11-03T04:04:32.551Z,20.55
2022-11-03T04:07:23.455Z,21.73
2022-11-03T04:09:55.065Z,19.42
2022-11-03T04:12:45.110Z,19.83
2022-11-03T04:15:35.389Z,21.80
2022-11-03T04:18:26.183Z,20.45
2022-11-03T04:21:16.468Z,20.35
2022-11-03T04:23:48.026Z,21.30
2022-11-03T04:26:22.994Z,21.88
2022-11-03T04:28:55.645Z,20.98
2022-11-03T04:31:29.037Z,22.88
2022-11-03T04:34:00.758Z,20.83
2022-11-03T04:36:32.436Z,25.98
2022-11-03T04:39:16.281Z,19.67
2022-11-03T04:41:48.274Z,17.20
2022-11-03T04:44:20.044Z,20.10
2022-11-03T04:46:53.930Z,19.95
2022-11-03T04:49:25.499Z,20.73
2022-11-03T04:51:58.271Z,20.77
2022-11-03T04:54:29.888Z,22.77
2022-11-03T04:57:09.085Z,20.45
2022-11-03T04:59:43.153Z,17.85
2022-11-03T05:02:18.449Z,17.77
2022-11-03T05:04:50.001Z,19.33
2022-11-03T05:07:28.881Z,19.80
2022-11-03T05:10:01.072Z,24.08
2022-11-03T05:12:33.487Z,24.23
2022-11-03T05:15:11.352Z,16.25
2022-11-03T05:17:42.922Z,17.42
2022-11-03T05:20:36.635Z,16.48
2022-11-03T05:23:11.182Z,19.23
2022-11-03T05:25:46.800Z,19.48
2022-11-03T05:28:28.365Z,18.70
2022-11-03T05:30:59.990Z,22.13
2022-11-03T05:33:35.490Z,22.98
2022-11-03T05:36:16.455Z,25.55
2022-11-03T05:38:48.671Z,22.15
2022-11-03T05:41:26.519Z,25.00
2022-11-03T05:44:02.321Z,23.13
2022-11-03T05:46:35.525Z,20.27
2022-11-03T05:49:07.318Z,19.38
2022-11-03T05:51:41.729Z,20.30
2022-11-03T05:54:20.836Z,21.15
2022-11-03T05:56:52.348Z,20.83
2022-11-03T05:59:30.107Z,20.17
2022-11-03T06:02:02.440Z,22.67
2022-11-03T06:04:38.708Z,19.25
2022-11-03T06:07:25.967Z,29.30
2022-11-03T06:09:58.224Z,23.00
2022-11-03T06:12:30.540Z,26.67
2022-11-03T06:15:07.263Z,22.20
2022-11-03T06:17:38.869Z,23.17
2022-11-03T06:20:18.320Z,35.53
2022-11-03T06:22:52.205Z,22.88
2022-11-03T06:25:36.672Z,41.83
2022-11-03T06:28:22.500Z,21.63
2022-11-03T06:30:54.081Z,34.70
2022-11-03T06:33:27.848Z,20.88
2022-11-03T06:36:03.304Z,23.27
2022-11-03T06:38:35.343Z,20.02
2022-11-03T06:41:20.756Z,22.45
2022-11-03T06:43:53.036Z,22.83
2022-11-03T06:46:26.409Z,23.33
2022-11-03T06:49:00.404Z,20.90
2022-11-03T06:51:35.775Z,21.08
2022-11-03T06:54:11.038Z,20.33
2022-11-03T06:56:42.659Z,19.63
2022-11-03T06:59:15.633Z,16.52
2022-11-03T07:01:50.996Z,19.52
2022-11-03T07:04:28.556Z,18.92
2022-11-03T07:07:02.817Z,22.30
2022-11-03T07:09:34.441Z,19.20
2022-11-03T07:12:17.327Z,19.52
2022-11-03T07:14:48.934Z,18.00
2022-11-03T07:17:22.609Z,16.50
2022-11-03T07:19:54.252Z,14.73
2022-11-03T07:22:27.267Z,15.88
2022-11-03T07:25:03.516Z,12.75
2022-11-03T07:27:39.823Z,14.70
2022-11-03T07:30:17.506Z,15.77
2022-11-03T07:32:52.853Z,15.38
2022-11-03T07:36:00.208Z,15.35
2022-11-03T07:38:26.901Z,16.60
2022-11-03T07:41:00.067Z,14.65
2022-11-03T07:43:35.732Z,16.48
2022-11-03T07:46:18.592Z,15.98
2022-11-03T07:48:57.061Z,14.82
2022-11-03T07:51:32.526Z,13.10
2022-11-03T07:54:18.342Z,14.10
2022-11-03T07:57:05.842Z,12.60
2022-11-03T07:59:41.135Z,17.73
2022-11-03T08:02:15.739Z,16.60
2022-11-03T08:07:18.846Z,13.43
2022-11-03T08:09:51.286Z,15.55
2022-11-03T08:12:23.165Z,14.80
2022-11-03T08:14:54.771Z,15.15
2022-11-03T08:17:26.668Z,13.32
2022-11-03T08:19:58.481Z,15.02
2022-11-03T08:22:30.091Z,12.27
2022-11-03T08:25:01.711Z,16.27
2022-11-03T08:27:33.291Z,12.52
2022-11-03T08:30:06.882Z,14.45
2022-11-03T08:32:38.545Z,12.52
2022-11-03T08:35:11.558Z,13.20
2022-11-03T08:37:43.181Z,14.85
2022-11-03T08:40:14.899Z,13.68
2022-11-03T08:42:46.497Z,17.38
2022-11-03T08:45:18.233Z,16.10
2022-11-03T08:47:50.023Z,13.05
2022-11-03T08:50:22.431Z,13.95
2022-11-03T08:52:54.139Z,12.88
2022-11-03T08:55:25.836Z,16.13
2022-11-03T08:57:57.459Z,12.43
2022-11-03T09:00:29.064Z,12.45
2022-11-03T09:03:00.653Z,14.23
2022-11-03T09:05:32.378Z,13.95
2022-11-03T09:10:55.890Z,16.98
2022-11-03T09:13:27.483Z,13.88
2022-11-03T09:15:59.105Z,14.95
2022-11-03T09:18:30.703Z,13.43
2022-11-03T09:21:04.335Z,13.82
2022-11-03T09:23:36.119Z,13.18
2022-11-03T09:26:07.699Z,19.65
2022-11-03T09:28:39.288Z,9.70
2022-11-03T09:31:10.934Z,14.00
2022-11-03T09:33:42.584Z,13.57
2022-11-03T09:36:14.205Z,15.35
2022-11-03T09:38:45.852Z,11.85
2022-11-03T09:41:27.714Z,12.07
2022-11-03T09:44:06.962Z,15.25
2022-11-03T09:46:38.756Z,13.50
2022-11-03T09:49:15.834Z,16.00
2022-11-03T09:51:47.851Z,16.15
2022-11-03T09:54:20.014Z,13.00
2022-11-03T09:56:54.692Z,12.43
2022-11-03T09:59:26.296Z,9.60
2022-11-03T10:01:58.068Z,10.27
2022-11-03T10:04:31.242Z,12.13
2022-11-03T10:07:05.007Z,12.88
2022-11-03T10:09:39.314Z,11.05
2022-11-03T10:12:11.843Z,11.18
2022-11-03T10:14:46.284Z,10.68
2022-11-03T10:17:21.970Z,11.48
2022-11-03T10:19:56.456Z,11.68
2022-11-03T10:25:38.672Z,13.10
2022-11-03T10:28:24.993Z,14.50
2022-11-03T10:31:14.254Z,12.73
2022-11-03T10:33:54.837Z,12.25
2022-11-03T10:36:29.128Z,14.52
2022-11-03T10:39:25.828Z,13.77
2022-11-03T10:41:59.193Z,12.18
2022-11-03T10:44:31.353Z,11.18
2022-11-03T10:47:05.128Z,11.50
2022-11-03T10:49:40.853Z,15.93
2022-11-03T10:52:22.912Z,14.25
2022-11-03T10:54:57.443Z,10.52
2022-11-03T11:00:01.182Z,12.73
2022-11-03T11:02:36.464Z,15.63
2022-11-03T11:05:22.232Z,12.73
2022-11-03T11:07:55.443Z,20.67
2022-11-03T11:10:31.188Z,15.30
2022-11-03T11:13:25.728Z,13.65
2022-11-03T11:16:01.526Z,15.43
2022-11-03T11:18:33.168Z,11.88
2022-11-03T11:21:17.641Z,12.48
2022-11-03T11:23:49.802Z,14.80
2022-11-03T11:26:27.598Z,14.27
2022-11-03T11:29:11.638Z,9.35
2022-11-03T11:31:44.408Z,14.27
2022-11-03T11:34:19.728Z,13.65
2022-11-03T11:36:57.191Z,10.38
2022-11-03T11:39:28.812Z,11.73
2022-11-03T11:42:10.002Z,10.85
2022-11-03T11:44:49.844Z,14.88
2022-11-03T11:47:35.071Z,12.10
2022-11-03T11:50:06.739Z,14.57
2022-11-03T11:52:48.604Z,11.80
2022-11-03T11:55:32.420Z,12.35
2022-11-03T11:58:06.461Z,12.05
2022-11-03T12:00:38.075Z,12.75
2022-11-03T12:03:15.503Z,14.23
2022-11-03T12:05:50.291Z,9.55
2022-11-03T12:08:28.935Z,10.88
2022-11-03T12:11:05.652Z,9.95
2022-11-03T12:13:51.193Z,13.05
2022-11-03T12:16:43.626Z,15.68
2022-11-03T12:19:41.806Z,11.90
2022-11-03T12:22:26.186Z,11.15
2022-11-03T12:25:01.324Z,10.85
2022-11-03T12:27:33.978Z,12.23
2022-11-03T12:30:12.571Z,8.27
2022-11-03T12:32:45.161Z,13.63
2022-11-03T12:35:17.155Z,10.63
2022-11-03T12:37:49.150Z,10.23
2022-11-03T12:40:20.964Z,10.13
2022-11-03T12:42:52.579Z,9.25
2022-11-03T12:45:24.431Z,10.23
2022-11-03T12:47:56.058Z,11.25
2022-11-03T12:50:27.695Z,12.57
2022-11-03T12:52:59.302Z,11.88
2022-11-03T12:55:30.922Z,12.27
2022-11-03T12:58:03.204Z,17.10
2022-11-03T13:00:34.812Z,11.18
2022-11-03T13:03:06.856Z,10.68
2022-11-03T13:05:38.790Z,12.48
2022-11-03T13:08:11.453Z,8.85
2022-11-03T13:10:43.080Z,10.65
2022-11-03T13:13:14.665Z,10.73
2022-11-03T13:15:46.329Z,13.20
2022-11-03T13:18:17.914Z,12.98
2022-11-03T13:20:49.688Z,11.10
2022-11-03T13:23:23.157Z,9.77
2022-11-03T13:25:54.955Z,9.57
2022-11-03T13:28:29.255Z,10.25
2022-11-03T13:31:01.208Z,9.70
2022-11-03T13:33:33.015Z,8.07
2022-11-03T13:36:05.033Z,12.77
2022-11-03T13:38:36.690Z,11.57
2022-11-03T13:41:09.243Z,11.88
2022-11-03T13:43:41.080Z,12.05
2022-11-03T13:46:12.969Z,9.65
2022-11-03T13:51:36.201Z,10.52
2022-11-03T13:59:53.971Z,11.35
2022-11-03T14:05:21.403Z,10.27
2022-11-03T14:07:53.084Z,11.20
2022-11-03T14:10:24.688Z,9.93
2022-11-03T14:12:56.312Z,13.23
2022-11-03T14:15:28.230Z,10.50
2022-11-03T14:17:59.891Z,9.95
2022-11-03T14:20:32.339Z,25.48
2022-11-03T14:23:04.112Z,17.77
2022-11-03T14:25:35.882Z,11.98
2022-11-03T14:28:07.544Z,14.57
2022-11-03T14:30:39.247Z,11.50
2022-11-03T14:33:11.114Z,13.27
2022-11-03T14:35:43.232Z,12.10
2022-11-03T14:38:14.830Z,9.70
2022-11-03T14:41:04.928Z,17.67
2022-11-03T14:43:36.524Z,18.50
2022-11-03T14:46:08.149Z,15.55
2022-11-03T14:48:39.820Z,12.55
2022-11-03T14:51:11.463Z,11.38
2022-11-03T14:53:43.050Z,14.05
2022-11-03T14:56:14.695Z,12.32
2022-11-03T14:58:46.359Z,15.63
2022-11-03T15:01:18.615Z,14.15
2022-11-03T15:03:50.332Z,15.40
2022-11-03T15:06:21.997Z,15.20
2022-11-03T15:08:56.447Z,10.88
2022-11-03T15:11:28.292Z,14.10
2022-11-03T15:14:02.743Z,16.15
2022-11-03T15:16:36.688Z,18.45
2022-11-03T15:19:08.826Z,17.73
2022-11-03T15:21:40.469Z,19.38
2022-11-03T15:27:03.992Z,15.88
2022-11-03T15:29:37.502Z,13.98
2022-11-03T15:32:09.073Z,18.00
2022-11-03T15:34:41.112Z,13.40
2022-11-03T15:37:12.683Z,14.13
2022-11-03T15:39:44.350Z,17.85
2022-11-03T15:42:15.973Z,16.20
2022-11-03T15:44:47.593Z,20.25
2022-11-03T15:47:21.898Z,16.85
2022-11-03T15:49:53.727Z,19.25
2022-11-03T15:52:25.519Z,17.95
2022-11-03T15:54:57.137Z,16.45
2022-11-03T15:57:28.823Z,16.30
2022-11-03T16:00:00.644Z,17.75
2022-11-03T16:02:41.293Z,16.83
2022-11-03T16:05:14.102Z,18.77
2022-11-03T16:07:45.716Z,21.45
2022-11-03T16:10:19.350Z,22.65
2022-11-03T16:12:50.906Z,29.33
2022-11-03T16:15:22.553Z,17.25
2022-11-03T16:17:54.127Z,16.13
2022-11-03T16:20:27.657Z,22.90
2022-11-03T16:22:59.332Z,25.85
2022-11-03T16:25:30.989Z,23.35
2022-11-03T16:28:02.692Z,19.45
2022-11-03T16:30:35.495Z,18.40
2022-11-03T16:33:07.561Z,20.67
2022-11-03T16:35:39.270Z,26.40
2022-11-03T16:38:11.508Z,25.40
2022-11-03T16:40:43.511Z,25.73
2022-11-03T16:43:15.077Z,24.70
2022-11-03T16:45:46.721Z,30.17
2022-11-03T16:48:18.320Z,23.83
2022-11-03T16:50:52.860Z,25.92
2022-11-03T16:53:27.414Z,27.00
2022-11-03T16:55:59.027Z,25.00
2022-11-03T16:58:30.942Z,25.52
2022-11-03T17:01:02.618Z,29.88
2022-11-03T17:03:34.618Z,30.38
2022-11-03T17:06:14.663Z,29.83
2022-11-03T17:08:52.838Z,29.38
2022-11-03T17:11:37.130Z,23.08
2022-11-03T17:14:13.448Z,21.23
2022-11-03T17:16:48.609Z,26.23
2022-11-03T17:19:20.274Z,36.08
2022-11-03T17:21:51.940Z,29.45
2022-11-03T17:24:23.604Z,28.02
2022-11-03T17:26:58.090Z,36.90
2022-11-03T17:29:44.144Z,63.55
2022-11-03T17:32:26.865Z,39.60
2022-11-03T17:34:58.719Z,47.25
2022-11-03T17:37:30.361Z,42.58
2022-11-03T17:40:04.741Z,48.03
2022-11-03T17:42:36.442Z,40.47
2022-11-03T17:45:12.709Z,33.03
2022-11-03T17:47:44.571Z,39.78
2022-11-03T17:50:21.479Z,35.58
2022-11-03T17:52:53.929Z,33.08
2022-11-03T17:55:31.663Z,36.65
2022-11-03T17:58:04.888Z,50.25
2022-11-03T18:00:37.375Z,52.85
2022-11-03T18:03:14.985Z,56.47
2022-11-03T18:05:46.795Z,61.42
2022-11-03T18:08:20.064Z,71.25
2022-11-03T18:10:54.276Z,60.30
2022-11-03T18:13:34.773Z,52.58
2022-11-03T18:16:10.127Z,56.42
2022-11-03T18:18:43.976Z,56.20
2022-11-03T18:21:18.712Z,53.67
2022-11-03T18:23:50.712Z,48.03
2022-11-03T18:26:24.489Z,50.92
2022-11-03T18:28:56.243Z,45.00
2022-11-03T18:31:37.293Z,52.05
2022-11-03T18:34:19.670Z,56.97
2022-11-03T18:36:52.770Z,57.53
2022-11-03T18:39:26.515Z,53.88
2022-11-03T18:41:59.640Z,48.65
2022-11-03T18:44:31.504Z,49.30
2022-11-03T18:47:03.110Z,52.25
2022-11-03T18:49:35.362Z,45.00
2022-11-03T18:52:15.467Z,50.13
2022-11-03T18:54:52.301Z,45.30
2022-11-03T18:57:26.435Z,43.83
2022-11-03T18:59:58.108Z,35.70
2022-11-03T19:02:30.531Z,42.10
2022-11-03T19:05:02.196Z,38.38
2022-11-03T19:07:35.916Z,36.75
2022-11-03T19:10:10.841Z,36.28
2022-11-03T19:15:21.243Z,29.38
2022-11-03T19:17:56.972Z,31.48
2022-11-03T19:20:28.925Z,34.58
2022-11-03T19:23:00.519Z,28.92
2022-11-03T19:25:32.286Z,30.25
2022-11-03T19:28:04.170Z,26.50
2022-11-03T19:30:35.819Z,29.73
2022-11-03T19:33:16.503Z,26.77
2022-11-03T19:35:49.579Z,26.02
2022-11-03T19:38:21.483Z,28.02
2022-11-03T19:41:25.215Z,26.52
2022-11-03T19:43:56.983Z,23.73
2022-11-03T19:46:28.992Z,30.20
2022-11-03T19:49:00.717Z,30.60
2022-11-03T19:51:36.878Z,26.17
2022-11-03T19:54:15.872Z,30.00
2022-11-03T19:56:47.802Z,30.48
2022-11-03T19:59:19.409Z,31.55
2022-11-03T20:01:51.114Z,31.40
2022-11-03T20:04:22.829Z,30.85
2022-11-03T20:06:54.585Z,31.70
2022-11-03T20:12:03.225Z,28.90
2022-11-03T20:14:35.258Z,32.80
2022-11-03T20:17:17.510Z,28.25
2022-11-03T20:19:49.415Z,30.80
2022-11-03T20:22:29.940Z,32.92
2022-11-03T20:25:04.691Z,29.75
2022-11-03T20:30:13.942Z,27.10
2022-11-03T20:32:46.793Z,31.65
2022-11-03T20:35:27.995Z,26.48
2022-11-03T20:37:59.689Z,29.35
2022-11-03T20:40:31.981Z,35.97
2022-11-03T20:43:04.193Z,28.25
2022-11-03T20:45:35.803Z,26.25
2022-11-03T20:48:11.881Z,29.65
2022-11-03T20:50:43.464Z,31.88
2022-11-03T20:53:17.464Z,28.40
2022-11-03T20:55:49.218Z,31.92
2022-11-03T20:58:21.080Z,28.52
2022-11-03T21:00:53.061Z,33.17
2022-11-03T21:03:53.587Z,30.73
2022-11-03T21:06:20.279Z,29.80
2022-11-03T21:08:52.372Z,35.22
2022-11-03T21:11:29.760Z,31.20
2022-11-03T21:14:08.242Z,37.78
2022-11-03T21:16:58.795Z,42.60
2022-11-03T21:20:01.082Z,35.03
2022-11-03T21:22:55.904Z,36.83
2022-11-03T21:25:27.642Z,34.38
2022-11-03T21:27:59.364Z,33.22
2022-11-03T21:30:33.753Z,41.80
2022-11-03T21:33:05.355Z,42.72
2022-11-03T21:35:37.821Z,32.38
2022-11-03T21:38:11.000Z,34.40
2022-11-03T21:40:44.636Z,37.03
2022-11-03T21:43:36.391Z,34.88
2022-11-03T21:46:11.094Z,37.45
2022-11-03T21:51:32.759Z,38.53
2022-11-03T21:54:04.545Z,34.97
2022-11-03T21:56:36.116Z,38.10
2022-11-03T21:59:07.794Z,36.25
2022-11-03T22:01:39.512Z,32.40
2022-11-03T22:04:11.203Z,32.63
2022-11-03T22:06:42.820Z,38.55
2022-11-03T22:09:14.400Z,36.72
2022-11-03T22:11:46.764Z,36.40
2022-11-03T22:14:18.668Z,34.22
2022-11-03T22:16:50.325Z,33.58
2022-11-03T22:19:41.438Z,33.90
2022-11-03T22:22:33.525Z,31.77
2022-11-03T22:25:23.991Z,33.60
2022-11-03T22:27:55.773Z,35.38
2022-11-03T22:30:45.960Z,32.50
2022-11-03T22:33:17.759Z,35.60
2022-11-03T22:36:07.972Z,33.72
2022-11-03T22:38:58.168Z,35.95
2022-11-03T22:41:48.496Z,31.17
2022-11-03T22:44:38.629Z,32.45
2022-11-03T22:47:11.317Z,31.73
2022-11-03T22:52:16.362Z,30.67
2022-11-03T22:54:47.958Z,33.00
2022-11-03T22:57:19.551Z,32.88
2022-11-03T22:59:51.243Z,33.22
2022-11-03T23:02:22.920Z,31.67
2022-11-03T23:04:54.569Z,31.45
2022-11-03T23:07:31.541Z,33.20
2022-11-03T23:10:05.157Z,29.83
2022-11-03T23:12:36.823Z,33.63
2022-11-03T23:15:27.207Z,33.65
2022-11-03T23:18:21.471Z,35.00
2022-11-03T23:21:08.173Z,33.10
2022-11-03T23:23:58.863Z,36.15
2022-11-03T23:26:30.457Z,32.55
2022-11-03T23:29:02.052Z,31.42
2022-11-03T23:31:35.437Z,31.67
2022-11-03T23:34:08.733Z,35.70
2022-11-03T23:36:40.404Z,35.28
2022-11-03T23:39:16.990Z,36.75
2022-11-03T23:41:50.456Z,34.60
2022-11-03T23:44:22.110Z,30.33
2022-11-03T23:47:12.030Z,36.65
2022-11-03T23:49:43.583Z,33.45
2022-11-03T23:52:15.167Z,33.28
2022-11-03T23:54:46.792Z,30.65
2022-11-03T23:57:36.919Z,32.80
